Weather observations for the past three days for
Zapata, TX
Imperial (Metric)
Date Time (cdt) Wind (mph) Vis. (mi.) Weather Sky Cond. Temperature (ºF) Relative Humidity Wind Chill (°F) Heat Index (°F) Pressure Precipitation (in)
Air Dwpt 6 hour altimeter (in) sea level (mb) 1 hr 3 hr 6 hr
Max. Min.
05 00:35 SE 12 G 18 10.00 Partly Cloudy SCT029 86 73.4 66% 93 29.9 0.0
05 00:15 SE 7 10.00 Fair CLR 86.4 72.9 64% 93 29.9 0.0
04 23:55 SE 10 G 20 10.00 Fair CLR 86.9 72.9 63% 94 29.89 0.0
04 23:35 SE 14 G 24 10.00 Fair CLR 87.3 72.1 61% 94 29.88 0.0
04 23:15 SE 15 G 21 10.00 Fair CLR 88 71.6 58% 94 29.87 0.0
04 22:55 SE 9 G 20 10.00 Fair CLR 88.7 71.6 57% 95 29.87 0.0
04 22:35 SE 15 G 24 10.00 Fair CLR 89.2 71.6 56% 96 29.89 0.0
04 22:15 SE 12 G 20 10.00 Fair CLR 90.3 71.4 54% 97 29.9 0.0
04 21:55 SE 15 G 22 10.00 Fair CLR 91.4 70.7 51% 98 29.88 0.0
04 21:30 SE 15 G 22 10.00 Fair CLR 92.7 69.3 46% 98 29.85 0.0
04 21:15 SE 14 G 22 10.00 Fair CLR 93.6 68.7 44% 99 29.85 0.0
04 20:55 SE 12 G 22 10.00 Fair CLR 94.3 68.5 43% 99 29.84 0.0
04 20:35 E 10 G 18 10.00 Partly Cloudy SCT085 93.6 72.5 50% 102 29.83 0.0
04 20:15 E 16 G 23 10.00 Partly Cloudy SCT085 SCT100 SCT120 93.9 71.6 48% 102 29.8 0.0
04 19:55 E 15 G 21 10.00 Mostly Cloudy BKN085 BKN120 94.1 71.8 48% 102 29.81 0.0
04 19:35 E 14 G 26 10.00 Mostly Cloudy BKN085 96.3 71.2 44% 104 29.8 0.0
04 18:55 SE 10 G 16 10.00 Fair CLR 102.7 62.6 107.2 99.1 27% 105 29.78 0.0
04 18:35 SE 8 10.00 Fair CLR 104 62.8 26% 107 29.77 0.0
04 18:15 SE 8 G 17 10.00 Fair CLR 104.2 62.6 26% 107 29.77 0.0
04 17:55 SE 8 10.00 Fair CLR 102.2 62.4 27% 104 29.77 0.0
04 17:35 E 7 10.00 Fair CLR 103.1 62.4 26% 105 29.78 0.0
04 17:15 E 15 G 18 10.00 Partly Cloudy SCT080 104.2 63.1 26% 107 29.78 0.0
04 16:55 E 14 G 18 10.00 Partly Cloudy SCT080 106.3 63.7 25% 110 29.78 0.0
04 16:35 SE 9 10.00 Partly Cloudy SCT080 104.7 63.9 26% 108 29.79 0.0
04 16:15 E 3 G 12 10.00 Partly Cloudy SCT085 106.3 63.9 25% 110 29.79 0.0
04 16:00 E 12 10.00 Partly Cloudy SCT075 104.7 63.9 26% 108 29.8 0.0
04 15:35 SE 3 10.00 Partly Cloudy SCT070 103.5 64.8 28% 107 29.81 0.0
04 15:10 E 8 10.00 Mostly Cloudy SCT070 BKN085 105.8 66 28% 111 29.82 0.0
04 14:55 S 8 10.00 Partly Cloudy SCT070 104.5 66.4 29% 110 29.83 0.0
04 14:35 SE 3 10.00 Fair CLR 103.8 66.4 30% 109 29.84 0.0
04 14:15 SE 7 10.00 Fair CLR 104 66.9 30% 110 29.84 0.0
04 13:55 S 6 10.00 Fair CLR 103.6 67.1 31% 109 29.85 0.0
04 13:35 S 9 10.00 Fair CLR 101.7 66.9 32% 107 29.86 0.0
04 13:15 SE 9 10.00 Fair CLR 100.9 67.6 34% 107 29.87 0.0
04 12:55 S 9 10.00 Fair CLR 98.6 68 99.1 81.5 37% 104 29.88 0.0
04 12:35 SE 6 10.00 Fair CLR 98.6 68.5 38% 105 29.89 0.0
04 12:15 S 7 10.00 Fair CLR 97.7 69.8 40% 105 29.9 0.0
04 11:55 SE 10 G 17 10.00 Fair CLR 96.3 69.8 42% 103 29.91 0.0
04 11:35 SE 9 10.00 Fair CLR 94.3 71.1 47% 102 29.91 0.0
04 11:15 SE 9 10.00 Fair CLR 93.7 71.4 48% 101 29.91 0.0
04 10:35 S 8 10.00 Partly Cloudy SCT028 91.6 72.5 54% 100 29.91 0.0
04 10:15 S 8 10.00 Partly Cloudy SCT026 90.1 73 57% 98 29.9 0.0
04 09:55 SE 7 10.00 Partly Cloudy SCT023 89.2 73.4 60% 98 29.9 0.0
04 09:35 SE 8 G 17 10.00 Partly Cloudy SCT021 87.8 73.6 63% 96 29.9 0.0
04 09:15 SE 10 10.00 Partly Cloudy SCT021 86.2 73.8 67% 94 29.9 0.0
04 08:55 SE 12 10.00 Fair CLR 85.1 73.6 69% 92 29.89 0.0
04 08:35 SE 8 10.00 Fair CLR 84 73.6 71% 91 29.89 0.0
04 08:15 SE 9 10.00 Fair CLR 82.8 73.6 74% 89 29.89 0.0
04 07:55 SE 6 10.00 Fair CLR 81.9 73.8 77% 88 29.88 0.0
04 07:35 SE 5 10.00 Fair CLR 81.5 73.8 77% 87 29.87 0.0
04 07:15 SE 6 10.00 Fair CLR 81.5 73.6 77% 87 29.87 0.0
04 06:55 SE 5 10.00 Fair CLR 81.5 73.4 85.5 81.5 77% 87 29.86 0.0
04 06:35 SE 5 10.00 Fair CLR 81.9 73.4 76% 87 29.86 0.0
04 06:15 SE 6 10.00 Fair CLR 82 73.4 75% 88 29.86 0.0
04 05:35 SE 5 10.00 Fair CLR 82.6 73.4 74% 89 29.85 0.0
04 05:15 SE 5 10.00 Fair CLR 82.9 73.6 73% 89 29.86 0.0
04 04:55 SE 5 10.00 Fair CLR 83.3 73.6 73% 90 29.85 0.0
04 04:35 SE 7 10.00 Fair CLR 83.5 73.8 73% 90 29.86 0.0
04 04:15 SE 5 10.00 Fair CLR 83.5 74.3 74% 91 29.86 0.0
04 03:55 SE 7 10.00 Fair CLR 83.7 74.5 74% 91 29.86 0.0
04 03:35 SE 8 G 16 10.00 Fair CLR 83.8 74.5 74% 91 29.86 0.0
04 03:15 SE 8 G 17 10.00 Partly Cloudy SCT024 84.2 74.3 72% 92 29.87 0.0
04 02:55 SE 7 10.00 Partly Cloudy SCT026 84.2 74.3 72% 92 29.87 0.0
04 02:35 SE 9 10.00 Fair CLR 84.2 74.3 72% 92 29.87 0.0
04 02:15 SE 8 G 16 10.00 Fair CLR 84.4 74.3 72% 92 29.88 0.0
04 01:55 SE 10 G 17 10.00 Fair CLR 84.7 74.3 71% 92 29.88 0.0
04 01:35 S 15 G 20 10.00 Partly Cloudy SCT027 85.1 74.3 70% 93 29.88 0.0
04 01:15 SE 12 10.00 Overcast OVC027 85.3 73.8 69% 93 29.89 0.0
04 00:55 SE 10 G 17 10.00 Mostly Cloudy BKN027 85.5 73.6 103.6 85.5 68% 93 29.89 0.0
04 00:35 SE 13 G 22 10.00 Partly Cloudy SCT027 85.5 73.6 68% 93 29.89 0.0
04 00:15 SE 9 G 18 10.00 Partly Cloudy SCT028 86 73.2 66% 93 29.88 0.0
03 23:55 SE 12 G 21 10.00 Partly Cloudy SCT028 86.4 73.4 65% 94 29.88 0.0
03 23:35 SE 13 G 20 10.00 Partly Cloudy SCT028 86.9 73.6 65% 95 29.88 0.0
03 23:15 SE 13 G 24 10.00 Fair CLR 87.6 72.9 62% 95 29.87 0.0
03 22:55 SE 14 G 21 10.00 Fair CLR 88.7 72.3 58% 96 29.87 0.0
03 22:35 SE 14 G 22 10.00 Fair CLR 89.4 71.6 56% 96 29.87 0.0
03 22:15 SE 14 G 24 10.00 Fair CLR 90.5 71.1 53% 97 29.85 0.0
03 21:55 SE 13 G 24 10.00 Fair CLR 91.4 69.8 49% 97 29.84 0.0
03 21:35 SE 17 G 24 10.00 Fair CLR 92.5 68.5 46% 97 29.82 0.0
03 21:15 SE 13 G 25 10.00 Fair CLR 93.9 67.3 42% 98 29.81 0.0
03 20:55 SE 15 G 21 10.00 Fair CLR 95.2 67.8 41% 100 29.8 0.0
03 20:35 SE 18 G 28 10.00 Fair CLR 96.8 66.4 37% 101 29.78 0.0
03 20:15 SE 17 G 23 10.00 Partly Cloudy SCT100 98.6 64.8 33% 102 29.77 0.0
03 19:55 SE 12 G 17 10.00 Partly Cloudy SCT100 100.6 63.3 30% 103 29.76 0.0
03 19:35 SE 8 10.00 Fair CLR 102.2 59.4 24% 103 29.76 0.0
03 19:15 SE 9 10.00 Fair CLR 102.7 59.4 24% 103 29.76 0.0
03 18:55 SE 12 10.00 Fair CLR 104.7 59.5 109.4 100.8 23% 106 29.75 0.0
03 18:35 SE 9 10.00 Fair CLR 106 59.9 22% 107 29.75 0.0
03 18:15 SE 9 10.00 Fair CLR 106.5 59 21% 107 29.74 0.0
03 17:55 SE 8 10.00 Partly Cloudy SCT095 107.1 59.4 21% 108 29.74 0.0
03 17:35 E 7 G 16 10.00 Partly Cloudy SCT095 107.8 60.3 21% 109 29.75 0.0
03 17:15 SE 5 10.00 Fair CLR 108.1 59.9 21% 110 29.74 0.0
03 16:55 SE 5 G 18 10.00 Partly Cloudy SCT095 108.3 60.1 21% 110 29.74 0.0
03 16:35 E 6 10.00 Fair CLR 109.2 61 21% 111 29.75 0.0
03 16:10 Calm 10.00 Fair CLR 107.8 61.2 22% 110 29.76 0.0
03 15:55 Calm 10.00 Fair CLR 106.9 62.8 24% 110 29.77 0.0
03 15:35 SE 5 10.00 Fair CLR 107.6 63.1 24% 111 29.78 0.0
03 15:15 SW 7 10.00 Fair CLR 107.4 62.8 23% 111 29.78 0.0
03 14:55 S 7 10.00 Fair CLR 106.7 64.4 25% 111 29.8 0.0
03 14:35 S 7 10.00 Fair CLR 105.4 64.9 27% 110 29.81 0.0
03 14:15 E 6 10.00 Fair CLR 105.1 66.2 28% 110 29.82 0.0
03 13:55 SE 9 10.00 Fair CLR 104.7 68.4 31% 112 29.83 0.0
03 13:35 E 6 10.00 Fair CLR 103.1 68.5 33% 110 29.85 0.0
03 13:15 SE 7 10.00 Fair CLR 101.8 68.9 35% 109 29.86 0.0
03 12:55 SE 9 10.00 Fair CLR 100.8 69.8 100.8 81.3 37% 108 29.87 0.0
03 12:35 SE 5 10.00 Fair CLR 99.7 71.1 40% 108 29.87 0.0
03 12:15 SE 8 10.00 Fair CLR 98.2 71.4 42% 107 29.89 0.0
03 11:55 S 7 10.00 Fair CLR 96.3 72.3 46% 105 29.9 0.0
03 11:35 SE 7 10.00 Fair CLR 95.4 73 49% 105 29.9 0.0
03 11:15 SE 9 10.00 Fair CLR 93.7 73.2 51% 103 29.9 0.0
03 10:55 SE 10 10.00 Fair CLR 92.7 73.4 54% 102 29.9 0.0
03 10:35 SE 10 10.00 Fair CLR 91.6 73.6 56% 101 29.9 0.0
03 10:15 SE 10 G 17 10.00 Fair CLR 90 73.9 59% 99 29.9 0.0
03 09:55 S 10 10.00 Fair CLR 88.7 74.1 62% 98 29.9 0.0
03 09:35 SE 8 10.00 Fair CLR 87.8 74.3 64% 97 29.91 0.0
03 09:15 SE 9 10.00 Fair CLR 86.2 74.3 68% 95 29.91 0.0
03 08:55 SE 8 10.00 Fair CLR 84.9 74.1 70% 93 29.91 0.0
03 08:35 SE 8 10.00 Fair CLR 84 73.9 72% 91 29.91 0.0
03 08:15 SE 7 10.00 Fair CLR 82.4 73.8 75% 88 29.91 0.0
03 07:55 SE 6 10.00 Fair CLR 81.7 73.8 77% 87 29.91 0.0
03 07:35 SE 7 10.00 Fair CLR 81.5 73.6 77% 87 29.9 0.0
03 07:15 SE 3 10.00 Fair CLR 81.5 73.8 77% 87 29.9 0.0
03 06:55 SE 5 10.00 Fair CLR 81.5 73.6 85.3 81.5 77% 87 29.9 0.0
03 06:35 SE 3 10.00 Fair CLR 81.9 73.8 77% 88 29.89 0.0
03 06:15 SE 6 10.00 Fair CLR 82 73.8 76% 88 29.89 0.0
03 05:55 SE 6 10.00 Fair CLR 82.4 73.9 76% 89 29.89 0.0
03 05:35 SE 6 10.00 Fair CLR 82.4 74.3 77% 89 29.89 0.0
03 05:15 SE 5 10.00 Fair CLR 82.8 73.9 75% 89 29.89 0.0
03 04:55 SE 8 10.00 Fair CLR 82.9 74.3 75% 90 29.89 0.0
03 04:35 SE 7 10.00 Fair CLR 82.9 74.3 75% 90 29.89 0.0
03 04:15 S 8 10.00 Fair CLR 83.3 74.3 74% 90 29.9 0.0
03 03:55 SE 6 10.00 Fair CLR 83.3 74.3 74% 90 29.9 0.0
03 03:35 S 7 10.00 Partly Cloudy SCT023 83.7 74.5 74% 91 29.9 0.0
03 03:15 SE 8 10.00 Partly Cloudy SCT023 83.8 74.5 74% 91 29.91 0.0
03 02:55 S 10 G 17 10.00 Partly Cloudy SCT023 84.2 74.3 72% 92 29.91 0.0
03 02:35 SE 8 G 18 10.00 Partly Cloudy SCT023 84.4 74.3 72% 92 29.91 0.0
03 02:15 SE 12 G 18 10.00 Mostly Cloudy BKN023 84.7 74.5 71% 93 29.92 0.0
03 01:55 SE 8 G 18 10.00 Fair CLR 84.7 74.5 71% 93 29.91 0.0
03 01:35 SE 8 G 20 10.00 Partly Cloudy SCT025 85.1 74.5 71% 93 29.92 0.0
03 01:15 S 9 G 20 10.00 Mostly Cloudy BKN025 85.3 74.7 71% 94 29.92 0.0
03 00:55 S 9 G 18 10.00 Partly Cloudy SCT025 85.3 74.5 104.4 85.3 70% 93 29.92 0.0
03 00:35 SE 12 G 22 10.00 Fair CLR 85.6 74.3 69% 94 29.92 0.0
03 00:15 SE 16 G 28 10.00 Fair CLR 86.2 74.1 67% 94 29.92 0.0
02 23:55 SE 10 G 17 10.00 Fair CLR 87.3 74.1 65% 96 29.91 0.0
02 23:35 S 14 G 20 10.00 Fair CLR 88.3 72.9 60% 96 29.9 0.0
02 23:15 SE 15 G 26 10.00 Fair CLR 89.4 72.1 57% 97 29.9 0.0
02 22:55 SE 17 G 23 10.00 Fair CLR 90.7 69.6 50% 96 29.89 0.0
02 22:35 SE 13 G 18 10.00 Fair CLR 91.9 66.9 44% 95 29.88 0.0
02 22:15 SE 12 G 17 10.00 Fair CLR 93 65.8 41% 96 29.88 0.0
02 21:55 SE 15 G 24 10.00 Fair CLR 94.1 63.7 37% 96 29.86 0.0
02 21:35 SE 12 G 21 10.00 Fair CLR 95.2 61.7 33% 96 29.85 0.0
02 21:15 SE 14 G 22 10.00 Fair CLR 96.3 62.6 33% 98 29.84 0.0
02 20:55 SE 13 G 21 10.00 Fair CLR 97.3 64.4 34% 100 29.82 0.0
02 20:35 SE 9 10.00 Fair CLR 98.8 59.5 27% 99 29.82 0.0
02 20:15 SE 8 10.00 Fair CLR 99.7 59 26% 100 29.82 0.0
02 19:55 SE 8 G 16 10.00 Fair CLR 100.9 59 25% 101 29.81 0.0
02 19:35 SE 9 10.00 Fair CLR 102.2 59.2 24% 103 29.81 0.0
02 19:15 E 8 10.00 Partly Cloudy SCT100 103.3 59.4 24% 104 29.81 0.0
02 18:55 SE 12 G 17 10.00 Mostly Cloudy BKN100 105.1 59.5 108.5 102.2 22% 106 29.8 0.0
02 18:35 SE 8 10.00 Partly Cloudy SCT100 104.5 59.4 23% 105 29.81 0.0
02 18:15 SE 10 G 17 10.00 Mostly Cloudy BKN100 106.7 59.4 21% 108 29.81 0.0
02 17:55 SE 7 10.00 Partly Cloudy SCT100 106.5 59.5 21% 108 29.8 0.0
02 17:35 SE 7 10.00 Fair CLR 106.9 59 21% 108 29.81 0.0
02 17:15 SE 10 10.00 Fair CLR 107.2 58.5 20% 108 29.81 0.0
02 16:55 NE 3 10.00 Fair CLR 107.1 58.1 20% 107 29.82 0.0
02 16:35 SE 7 10.00 Partly Cloudy SCT090 106.9 59.7 21% 108 29.82 0.0
02 16:15 SE 7 10.00 Fair CLR 108.5 59.9 21% 110 29.83 0.0
02 15:55 SE 7 10.00 Fair CLR 107.4 59 21% 108 29.84 0.0
02 15:35 SE 7 10.00 Fair CLR 106.7 60.6 22% 108 29.85 0.0
02 15:15 E 7 10.00 Partly Cloudy SCT080 106.7 61.5 23% 109 29.86 0.0
02 14:55 E 6 10.00 Partly Cloudy SCT080 106.7 62.6 24% 110 29.87 0.0
02 14:35 SE 8 10.00 Partly Cloudy SCT080 105.8 63.5 25% 109 29.88 0.0
02 14:15 SE 3 10.00 Fair CLR 104.5 62.8 26% 107 29.89 0.0
02 13:55 E 5 10.00 Fair CLR 104.4 63.7 27% 108 29.9 0.0
02 13:35 S 3 10.00 Fair CLR 103.3 64 28% 107 29.91 0.0
02 13:15 SE 10 10.00 Fair CLR 102.4 67.1 32% 108 29.92 0.0
02 12:55 SE 3 10.00 Fair CLR 101.3 67.8 101.3 80.8 34% 107 29.93 0.0
02 12:35 S 7 10.00 Fair CLR 100 68 35% 106 29.95 0.0
02 12:15 S 6 10.00 Fair CLR 98.6 69.8 39% 106 29.95 0.0
02 11:55 S 7 10.00 Fair CLR 96.8 70.9 43% 105 29.96 0.0
02 11:35 S 8 10.00 Fair CLR 95.5 71.6 46% 104 29.96 0.0
02 11:15 SE 6 10.00 Fair CLR 94.5 72.5 49% 103 29.97 0.0
02 10:55 S 8 10.00 Fair CLR 92.7 73.2 53% 102 29.98 0.0
02 10:35 SE 7 10.00 Fair CLR 92.3 73.4 54% 102 29.98 0.0
02 10:15 SE 6 10.00 Fair CLR 90.3 73.6 58% 99 29.97 0.0
02 09:55 SE 6 10.00 Fair CLR 89.2 73.8 60% 98 29.97 0.0
02 09:35 S 8 10.00 Fair CLR 87.3 73.8 64% 95 29.97 0.0
02 09:15 SE 8 10.00 Fair CLR 86 73.9 67% 94 29.97 0.0
02 08:55 SE 7 10.00 Fair CLR 84.7 74.3 71% 92 29.97 0.0
02 08:35 SE 6 10.00 Fair CLR 83.5 74.3 74% 91 29.97 0.0
02 08:15 SE 7 10.00 Fair CLR 82.2 74.1 77% 88 29.96 0.0
02 07:55 SE 5 10.00 Fair CLR 81.3 73.8 78% 87 29.96 0.0
02 07:35 SE 5 10.00 Fair CLR 80.8 73.6 79% 86 29.95 0.0
02 07:15 SE 6 10.00 Fair CLR 80.8 73.6 79% 86 29.95 0.0
02 06:55 SE 5 10.00 Fair CLR 81 73.6 85.3 81 78% 86 29.95 0.0
02 06:35 SE 6 10.00 Fair CLR 81.1 73.4 77% 86 29.95 0.0
02 06:15 Calm 10.00 Fair CLR 81.5 73.6 77% 87 29.95 0.0
02 05:55 SE 5 10.00 Fair CLR 81.3 73.4 77% 87 29.94 0.0
02 05:35 SE 5 10.00 Fair CLR 81.5 73.4 77% 87 29.94 0.0
02 05:15 SE 3 10.00 Fair CLR 81.7 73.4 76% 87 29.94 0.0
02 04:55 SE 7 10.00 Fair CLR 81.9 73.4 76% 87 29.94 0.0
02 04:35 SE 6 10.00 Fair CLR 82.2 73.4 75% 88 29.93 0.0
02 04:15 SE 7 10.00 Fair CLR 82.4 73.4 74% 88 29.94 0.0
02 03:55 SE 7 10.00 Fair CLR 82.6 73.2 73% 88 29.94 0.0
02 03:35 SE 7 10.00 Fair CLR 82.8 73 73% 89 29.95 0.0
02 03:15 SE 6 10.00 Fair CLR 83.3 73.4 72% 90 29.95 0.0
02 02:55 SE 8 10.00 Fair CLR 83.1 73.8 73% 90 29.95 0.0
02 02:35 SE 9 10.00 Fair CLR 83.3 73.9 73% 90 29.96 0.0
02 02:15 SE 9 10.00 Fair CLR 83.7 73.8 72% 90 29.96 0.0
02 01:55 SE 13 G 17 10.00 Fair CLR 84.2 73.6 71% 91 29.96 0.0
02 01:35 SE 9 G 18 10.00 Fair CLR 84.6 73.6 70% 92 29.96 0.0
02 01:15 SE 8 10.00 Fair CLR 84.9 73.4 68% 92 29.96 0.0
02 00:55 SE 9 G 17 10.00 Fair CLR 85.5 73.6 103.3 85.5 68% 93 29.96 0.0
Date Time (cdt) Wind (mph) Vis. (mi.) Weather Sky Cond. Air Dwpt Max. Min. Relative Humidity Wind Chill (°F) Heat Index (°F) altimeter (in) sea level (mb) 1 hr 3 hr 6 hr
6 hour
Temperature (ºF) Pressure Precipitation (in)